Time;durP1;ratioP1;P1;durP2;ratioP2;P2;SDS_P1;SDS_P2;PMS_P1;PMS_P2;Temp;Humidity;BMP_temperature;BMP_pressure;BME280_temperature;BME280_humidity;BME280_pressure;Samples;Min_cycle;Max_cycle;Signal;HPM_P1;HPM_P2
2022/01/01 00:01:27;;;;;;;0.30;0.20;;;11.00;99.90;;;;;;5075381;28;20494;-86
2022/01/01 00:03:54;;;;;;;0.30;0.20;;;11.10;99.90;;;;;;5065044;28;20768;-85
2022/01/01 00:06:22;;;;;;;0.30;0.10;;;11.10;99.90;;;;;;5062251;28;20451;-86
2022/01/01 00:08:49;;;;;;;0.30;0.20;;;11.20;99.90;;;;;;5070031;28;20428;-86
2022/01/01 00:11:16;;;;;;;0.30;0.20;;;11.20;99.90;;;;;;5071525;28;20435;-84
2022/01/01 00:13:43;;;;;;;0.30;0.20;;;11.30;99.90;;;;;;5068054;28;20815;-85
2022/01/01 00:16:10;;;;;;;0.30;0.20;;;11.30;99.90;;;;;;5068366;28;20461;-85
2022/01/01 00:18:38;;;;;;;0.30;0.10;;;11.20;99.90;;;;;;5069711;28;20466;-85
2022/01/01 00:21:06;;;;;;;0.30;0.20;;;11.20;99.90;;;;;;5070356;28;20440;-84
2022/01/01 00:23:33;;;;;;;0.30;0.20;;;11.20;99.90;;;;;;5069325;28;20947;-85
2022/01/01 00:26:00;;;;;;;0.30;0.20;;;11.20;99.90;;;;;;5073125;28;20846;-85
2022/01/01 00:28:27;;;;;;;0.30;0.20;;;11.10;99.90;;;;;;5071935;28;20498;-85
2022/01/01 00:30:54;;;;;;;0.67;0.60;;;11.10;99.90;;;;;;5070751;28;20517;-85
2022/01/01 00:33:21;;;;;;;0.30;0.20;;;11.10;99.90;;;;;;5068704;28;20503;-85
2022/01/01 00:35:49;;;;;;;0.30;0.20;;;11.10;99.90;;;;;;5070064;28;20440;-84
2022/01/01 00:38:16;;;;;;;0.30;0.30;;;11.00;99.90;;;;;;5070879;28;20468;-85
2022/01/01 00:40:44;;;;;;;0.30;0.20;;;11.10;99.90;;;;;;5070707;28;20468;-85
2022/01/01 00:43:11;;;;;;;9.30;0.60;;;11.00;99.90;;;;;;5066865;28;20985;-86
2022/01/01 00:45:38;;;;;;;0.30;0.20;;;10.90;99.90;;;;;;5069434;28;20440;-86
2022/01/01 00:48:06;;;;;;;0.30;0.20;;;10.90;99.90;;;;;;5068576;28;20452;-86
2022/01/01 00:50:33;;;;;;;0.30;0.20;;;11.00;99.90;;;;;;5070822;28;20497;-87
2022/01/01 00:53:02;;;;;;;0.30;0.20;;;11.00;99.90;;;;;;5070859;28;20553;-85
2022/01/01 00:55:29;;;;;;;0.30;0.20;;;10.90;99.90;;;;;;5069462;28;20537;-84
2022/01/01 00:57:56;;;;;;;0.30;0.20;;;10.90;99.90;;;;;;5070252;28;20436;-87
2022/01/01 01:00:23;;;;;;;0.30;0.20;;;10.90;99.90;;;;;;5070229;28;20456;-85
2022/01/01 01:02:50;;;;;;;0.30;0.20;;;10.90;99.90;;;;;;5074281;28;20920;-86
2022/01/01 01:05:17;;;;;;;0.30;0.20;;;10.90;99.90;;;;;;5069079;28;21039;-84
2022/01/01 01:07:44;;;;;;;0.40;0.33;;;10.90;99.90;;;;;;5070815;28;20448;-85
2022/01/01 01:10:13;;;;;;;0.30;0.20;;;10.90;99.90;;;;;;5069319;28;20454;-85
2022/01/01 01:12:43;;;;;;;0.30;0.20;;;10.90;99.90;;;;;;5071110;28;20970;-87
2022/01/01 01:15:16;;;;;;;0.30;0.20;;;10.90;99.90;;;;;;5065054;28;20488;-86
2022/01/01 01:17:44;;;;;;;0.30;0.20;;;10.90;99.90;;;;;;5066939;28;20482;-85
2022/01/01 01:20:13;;;;;;;0.30;0.20;;;10.90;99.90;;;;;;5070094;28;21009;-87
2022/01/01 01:22:41;;;;;;;0.30;0.20;;;11.00;99.90;;;;;;5084047;28;20466;-84
2022/01/01 01:25:08;;;;;;;0.40;0.20;;;11.00;99.90;;;;;;5085413;28;20448;-83
2022/01/01 01:27:37;;;;;;;0.30;0.10;;;11.00;99.90;;;;;;5067613;28;20428;-84
2022/01/01 01:30:08;;;;;;;0.30;0.20;;;11.10;99.90;;;;;;5077285;28;20461;-83
2022/01/01 01:32:35;;;;;;;0.70;0.57;;;11.10;99.90;;;;;;5071580;28;20484;-84
2022/01/01 01:35:03;;;;;;;0.50;0.50;;;11.10;99.90;;;;;;5069459;28;20501;-83
2022/01/01 01:37:29;;;;;;;6.10;1.77;;;11.10;99.90;;;;;;5069878;28;20447;-84
2022/01/01 01:39:57;;;;;;;0.30;0.20;;;11.00;99.90;;;;;;5066109;28;20846;-83
2022/01/01 01:42:25;;;;;;;0.30;0.20;;;10.90;99.90;;;;;;5072921;28;20516;-85
2022/01/01 01:44:54;;;;;;;0.30;0.20;;;10.90;99.90;;;;;;5069142;28;20448;-84
2022/01/01 01:47:28;;;;;;;0.30;0.20;;;10.80;99.90;;;;;;5068770;28;20479;-84
2022/01/01 01:49:56;;;;;;;0.30;0.13;;;10.80;99.90;;;;;;5070199;28;20440;-84
2022/01/01 01:52:24;;;;;;;0.40;0.30;;;10.90;99.90;;;;;;5066337;28;20486;-84
2022/01/01 01:54:52;;;;;;;0.30;0.20;;;10.90;99.90;;;;;;5066124;28;20538;-84
2022/01/01 01:57:20;;;;;;;0.30;0.20;;;10.90;99.90;;;;;;5070890;28;20488;-86
2022/01/01 01:59:47;;;;;;;0.87;0.87;;;10.80;99.90;;;;;;5069863;28;20859;-83
2022/01/01 02:02:15;;;;;;;0.70;0.30;;;10.80;99.90;;;;;;5070861;28;20471;-85
2022/01/01 02:04:42;;;;;;;0.30;0.20;;;10.90;99.90;;;;;;5065798;28;20502;-83
2022/01/01 02:07:10;;;;;;;0.30;0.20;;;10.80;99.90;;;;;;5068938;28;20485;-84
2022/01/01 02:09:39;;;;;;;0.30;0.20;;;10.80;99.90;;;;;;5071245;28;20452;-86
2022/01/01 02:12:07;;;;;;;0.30;0.20;;;10.80;99.90;;;;;;5068441;28;20529;-83
2022/01/01 02:15:04;;;;;;;2.10;0.87;;;10.80;99.90;;;;;;5067888;28;20444;-85
2022/01/01 02:17:32;;;;;;;2.00;0.30;;;10.80;99.90;;;;;;5063169;28;20473;-84
2022/01/01 02:20:14;;;;;;;0.30;0.10;;;10.80;99.90;;;;;;5068989;28;20840;-84
2022/01/01 02:22:47;;;;;;;0.30;0.10;;;10.80;99.90;;;;;;5069282;28;20443;-83
2022/01/01 02:25:14;;;;;;;2.00;0.77;;;10.80;99.90;;;;;;5067684;28;20456;-83
2022/01/01 02:27:42;;;;;;;0.30;0.20;;;10.70;99.90;;;;;;5068899;28;20535;-83
2022/01/01 02:30:12;;;;;;;0.30;0.20;;;10.70;99.90;;;;;;5068973;28;20440;-83
2022/01/01 02:32:40;;;;;;;0.30;0.20;;;10.80;99.90;;;;;;5068841;28;20879;-83
2022/01/01 02:35:09;;;;;;;0.30;0.20;;;10.80;99.90;;;;;;5068691;28;20505;-82
2022/01/01 02:37:38;;;;;;;2.00;0.40;;;10.80;99.90;;;;;;5066259;28;20439;-84
2022/01/01 02:40:06;;;;;;;0.30;0.10;;;10.80;99.90;;;;;;5069398;28;20541;-86
2022/01/01 02:42:34;;;;;;;0.30;0.20;;;10.80;99.90;;;;;;5070700;28;20919;-85
2022/01/01 02:45:06;;;;;;;0.30;0.20;;;10.80;99.90;;;;;;5074572;28;20501;-85
2022/01/01 02:47:34;;;;;;;0.30;0.10;;;10.80;99.90;;;;;;5071554;28;20459;-82
2022/01/01 02:50:01;;;;;;;0.60;0.30;;;10.80;99.90;;;;;;5072805;28;20451;-84
2022/01/01 02:52:28;;;;;;;0.30;0.20;;;10.80;99.90;;;;;;5072430;28;20475;-83
2022/01/01 02:54:56;;;;;;;0.30;0.20;;;10.80;99.90;;;;;;5072909;28;20975;-83
2022/01/01 02:57:23;;;;;;;0.30;0.20;;;10.80;99.90;;;;;;5071890;28;20848;-85
2022/01/01 02:59:50;;;;;;;0.30;0.20;;;10.80;99.90;;;;;;5072323;28;20455;-83
2022/01/01 03:02:17;;;;;;;0.30;0.20;;;10.80;99.90;;;;;;5092902;28;20469;-85
2022/01/01 03:04:44;;;;;;;0.30;0.20;;;10.80;99.90;;;;;;5094352;28;20444;-83
2022/01/01 03:07:11;;;;;;;0.30;0.20;;;10.80;99.90;;;;;;5083811;28;20502;-83
2022/01/01 03:09:38;;;;;;;0.30;0.20;;;10.80;99.90;;;;;;5080455;28;20848;-83
2022/01/01 03:12:09;;;;;;;0.30;0.10;;;10.80;99.90;;;;;;5074436;28;20469;-84
2022/01/01 03:14:36;;;;;;;0.30;0.13;;;10.80;99.90;;;;;;5075434;28;20487;-86
2022/01/01 03:17:04;;;;;;;0.30;0.20;;;10.80;99.90;;;;;;5072384;28;20491;-83
2022/01/01 03:19:31;;;;;;;0.30;0.17;;;10.70;99.90;;;;;;5066071;28;20457;-87
2022/01/01 03:21:58;;;;;;;0.30;0.20;;;10.70;99.90;;;;;;5069870;28;20501;-83
2022/01/01 03:24:26;;;;;;;0.30;0.10;;;10.60;99.90;;;;;;5072748;28;20443;-83
2022/01/01 03:26:53;;;;;;;0.30;0.20;;;10.60;99.90;;;;;;5067693;28;20791;-83
2022/01/01 03:29:21;;;;;;;0.30;0.10;;;10.60;99.90;;;;;;5071202;28;20972;-84
2022/01/01 03:31:48;;;;;;;0.30;0.10;;;10.60;99.90;;;;;;5072079;28;20537;-83
2022/01/01 03:34:15;;;;;;;0.30;0.20;;;10.60;99.90;;;;;;5068645;28;20553;-85
2022/01/01 03:36:42;;;;;;;0.30;0.20;;;10.60;99.90;;;;;;5069440;28;20489;-86
2022/01/01 03:39:09;;;;;;;0.30;0.20;;;10.50;99.90;;;;;;5074477;28;20511;-84
2022/01/01 03:41:36;;;;;;;0.30;0.10;;;10.40;99.90;;;;;;5072749;28;20440;-86
2022/01/01 03:44:03;;;;;;;0.30;0.20;;;10.40;99.90;;;;;;5067272;28;20528;-84
2022/01/01 03:46:32;;;;;;;0.30;0.20;;;10.40;99.90;;;;;;5072106;28;20489;-84
2022/01/01 03:48:59;;;;;;;0.40;0.30;;;10.30;99.90;;;;;;5073384;28;20501;-85
2022/01/01 03:51:26;;;;;;;1.33;1.33;;;10.30;99.90;;;;;;5070865;28;20468;-84
2022/01/01 03:53:53;;;;;;;0.30;0.20;;;10.30;99.90;;;;;;5069789;28;20531;-85
2022/01/01 03:56:20;;;;;;;0.30;0.20;;;10.30;99.90;;;;;;5072344;28;20436;-83
2022/01/01 03:58:47;;;;;;;0.30;0.20;;;10.30;99.90;;;;;;5071504;28;20444;-83
2022/01/01 04:01:14;;;;;;;0.30;0.20;;;10.20;99.90;;;;;;5071479;28;20440;-83
2022/01/01 04:03:43;;;;;;;0.30;0.20;;;10.10;99.90;;;;;;5070922;28;20510;-84
2022/01/01 04:06:10;;;;;;;0.30;0.20;;;10.10;99.90;;;;;;5073533;28;20811;-84
2022/01/01 04:08:37;;;;;;;0.30;0.10;;;10.00;99.90;;;;;;5070924;28;20456;-86
2022/01/01 04:11:04;;;;;;;0.30;0.10;;;9.90;99.90;;;;;;5070536;28;20505;-85
2022/01/01 04:13:31;;;;;;;0.30;0.20;;;9.90;99.90;;;;;;5071644;28;20483;-84
2022/01/01 04:15:58;;;;;;;0.30;0.20;;;9.80;99.90;;;;;;5070172;28;20460;-85
2022/01/01 04:18:37;;;;;;;0.30;0.10;;;9.80;99.90;;;;;;5073083;28;20478;-83
2022/01/01 04:21:06;;;;;;;0.30;0.10;;;9.80;99.90;;;;;;5066989;28;20463;-84
2022/01/01 04:23:34;;;;;;;0.30;0.20;;;9.80;99.90;;;;;;5072407;28;20966;-84
2022/01/01 04:26:01;;;;;;;0.30;0.20;;;9.90;99.90;;;;;;5070489;28;20444;-84
2022/01/01 04:28:28;;;;;;;0.30;0.10;;;9.90;99.90;;;;;;5072347;28;20442;-84
2022/01/01 04:30:55;;;;;;;0.30;0.20;;;9.90;99.90;;;;;;5072008;28;20448;-83
2022/01/01 04:33:22;;;;;;;0.30;0.10;;;9.90;99.90;;;;;;5071047;28;20533;-85
2022/01/01 04:35:49;;;;;;;0.80;0.40;;;10.00;99.90;;;;;;5070169;28;20503;-86
2022/01/01 04:38:34;;;;;;;0.30;0.10;;;10.00;99.90;;;;;;5070697;28;20954;-84
2022/01/01 04:41:02;;;;;;;0.30;0.17;;;10.00;99.90;;;;;;5065720;28;20455;-85
2022/01/01 04:43:29;;;;;;;0.30;0.13;;;10.00;99.90;;;;;;5097012;28;20458;-84
2022/01/01 04:45:56;;;;;;;0.50;0.40;;;10.00;99.90;;;;;;5091356;28;20455;-83
2022/01/01 04:48:23;;;;;;;0.30;0.20;;;10.00;99.90;;;;;;5081437;28;20444;-83
2022/01/01 04:50:49;;;;;;;1.70;0.70;;;10.00;99.90;;;;;;5072007;28;20444;-84
2022/01/01 04:53:19;;;;;;;10.50;0.93;;;10.10;99.90;;;;;;5074453;28;20542;-84
2022/01/01 04:55:45;;;;;;;0.30;0.20;;;10.00;99.90;;;;;;5074414;28;20444;-85
2022/01/01 04:58:12;;;;;;;0.30;0.10;;;10.00;99.90;;;;;;5070259;28;20441;-83
2022/01/01 05:00:40;;;;;;;0.40;0.20;;;10.00;99.90;;;;;;5071655;28;20440;-84
2022/01/01 05:03:06;;;;;;;0.30;0.20;;;10.00;99.90;;;;;;5068948;28;20475;-83
2022/01/01 05:05:33;;;;;;;0.30;0.20;;;10.00;99.90;;;;;;5069378;28;21051;-84
2022/01/01 05:08:00;;;;;;;0.37;0.23;;;10.00;99.90;;;;;;5070382;28;20439;-85
2022/01/01 05:10:29;;;;;;;0.30;0.20;;;10.00;99.90;;;;;;5069367;28;20511;-84
2022/01/01 05:12:56;;;;;;;0.30;0.20;;;10.00;99.90;;;;;;5068269;28;20871;-84
2022/01/01 05:15:22;;;;;;;0.37;0.27;;;10.10;99.90;;;;;;5069482;28;20436;-84
2022/01/01 05:17:49;;;;;;;0.30;0.17;;;10.10;99.90;;;;;;5071236;28;20550;-83
2022/01/01 05:20:16;;;;;;;0.30;0.13;;;10.10;99.90;;;;;;5062394;28;20521;-84
2022/01/01 05:22:43;;;;;;;0.30;0.20;;;10.10;99.90;;;;;;5065071;28;20844;-85
2022/01/01 05:25:11;;;;;;;0.30;0.20;;;10.10;99.90;;;;;;5067382;28;20503;-83
2022/01/01 05:27:40;;;;;;;0.30;0.20;;;10.10;99.90;;;;;;5069322;28;20788;-83
2022/01/01 05:30:09;;;;;;;0.30;0.20;;;10.10;99.90;;;;;;5069540;28;20452;-83
2022/01/01 05:32:36;;;;;;;0.30;0.20;;;10.10;99.90;;;;;;5072035;28;20536;-84
2022/01/01 05:35:04;;;;;;;0.40;0.20;;;10.10;99.90;;;;;;5068781;28;20594;-84
2022/01/01 05:37:31;;;;;;;0.30;0.20;;;10.20;99.90;;;;;;5069717;28;20444;-83
2022/01/01 05:39:58;;;;;;;3.43;0.30;;;10.20;99.90;;;;;;5072306;28;20569;-83
2022/01/01 05:42:25;;;;;;;0.30;0.20;;;10.20;99.90;;;;;;5069510;28;20444;-84
2022/01/01 05:44:53;;;;;;;0.30;0.20;;;10.20;99.90;;;;;;5069477;28;20440;-84
2022/01/01 05:47:20;;;;;;;0.30;0.20;;;10.20;99.90;;;;;;5068543;28;21303;-84
2022/01/01 05:49:47;;;;;;;0.30;0.20;;;10.20;99.90;;;;;;5069464;28;20914;-85
2022/01/01 05:52:14;;;;;;;0.30;0.10;;;10.20;99.90;;;;;;5066702;28;20942;-84
2022/01/01 05:54:41;;;;;;;0.30;0.17;;;10.30;99.90;;;;;;5066055;28;20537;-84
2022/01/01 05:57:08;;;;;;;0.30;0.20;;;10.30;99.90;;;;;;5065835;28;20493;-84
2022/01/01 05:59:35;;;;;;;0.30;0.17;;;10.30;99.90;;;;;;5069337;28;20444;-84
2022/01/01 06:02:03;;;;;;;0.40;0.27;;;10.30;99.90;;;;;;5073478;28;20444;-84
2022/01/01 06:04:30;;;;;;;0.30;0.20;;;10.30;99.90;;;;;;5067949;28;20505;-84
2022/01/01 06:06:57;;;;;;;0.30;0.20;;;10.30;99.90;;;;;;5068294;28;20463;-85
2022/01/01 06:09:24;;;;;;;0.30;0.20;;;10.30;99.90;;;;;;5070862;28;20911;-87
2022/01/01 06:11:51;;;;;;;0.30;0.10;;;10.30;99.90;;;;;;5070553;28;20444;-84
2022/01/01 06:14:20;;;;;;;0.30;0.20;;;10.30;99.90;;;;;;5068177;28;20532;-83
2022/01/01 06:16:47;;;;;;;0.30;0.20;;;10.30;99.90;;;;;;5073491;28;20480;-84
2022/01/01 06:19:16;;;;;;;0.30;0.20;;;10.20;99.90;;;;;;5068957;28;20464;-84
2022/01/01 06:21:43;;;;;;;0.30;0.20;;;10.20;99.90;;;;;;5083919;28;20487;-83
2022/01/01 06:24:10;;;;;;;0.30;0.17;;;10.20;99.90;;;;;;5095001;28;20448;-84
2022/01/01 06:26:37;;;;;;;0.30;0.20;;;10.20;99.90;;;;;;5083599;28;20436;-83
2022/01/01 06:29:04;;;;;;;0.30;0.10;;;10.20;99.90;;;;;;5076683;28;20460;-84
2022/01/01 06:31:31;;;;;;;0.30;0.20;;;10.20;99.90;;;;;;5076393;28;20447;-83
2022/01/01 06:33:58;;;;;;;0.30;0.20;;;10.20;99.90;;;;;;5067941;28;20989;-85
2022/01/01 06:36:26;;;;;;;0.30;0.20;;;10.20;99.90;;;;;;5069970;28;20459;-83
2022/01/01 06:38:53;;;;;;;0.30;0.10;;;10.20;99.90;;;;;;5069080;28;20479;-89
2022/01/01 06:41:20;;;;;;;0.57;0.57;;;10.20;99.90;;;;;;5069485;28;20472;-83
2022/01/01 06:43:47;;;;;;;0.30;0.20;;;10.20;99.90;;;;;;5068996;28;20440;-86
2022/01/01 06:46:14;;;;;;;0.30;0.10;;;10.20;99.90;;;;;;5068189;28;20537;-85
2022/01/01 06:48:41;;;;;;;0.30;0.20;;;10.20;99.90;;;;;;5068592;28;21271;-85
2022/01/01 06:51:08;;;;;;;0.37;0.23;;;10.20;99.90;;;;;;5069518;28;20508;-85
2022/01/01 06:53:36;;;;;;;0.30;0.13;;;10.20;99.90;;;;;;5070886;28;20475;-85
2022/01/01 06:56:06;;;;;;;0.30;0.20;;;10.20;99.90;;;;;;5083006;28;20452;-84
2022/01/01 06:58:33;;;;;;;0.30;0.20;;;10.20;99.90;;;;;;5068248;28;20467;-86
2022/01/01 07:01:00;;;;;;;0.30;0.20;;;10.20;99.90;;;;;;5080377;28;20443;-86
2022/01/01 07:03:27;;;;;;;0.30;0.20;;;10.30;99.90;;;;;;5072234;28;20472;-86
2022/01/01 07:05:55;;;;;;;0.30;0.20;;;10.30;99.90;;;;;;5070867;28;20444;-85
2022/01/01 07:08:21;;;;;;;0.30;0.20;;;10.40;99.90;;;;;;5070042;28;20502;-86
2022/01/01 07:10:50;;;;;;;0.30;0.20;;;10.40;99.90;;;;;;5067944;28;20464;-86
2022/01/01 07:13:18;;;;;;;0.30;0.20;;;10.40;99.90;;;;;;5068615;28;20501;-86
2022/01/01 07:15:45;;;;;;;0.30;0.20;;;10.40;99.90;;;;;;5068119;28;20553;-86
2022/01/01 07:18:12;;;;;;;0.30;0.20;;;10.40;99.90;;;;;;5067610;28;20456;-87
2022/01/01 07:20:39;;;;;;;0.63;0.50;;;10.40;99.90;;;;;;5068260;28;20930;-86
2022/01/01 07:23:06;;;;;;;0.30;0.20;;;10.40;99.90;;;;;;5065200;28;20499;-86
2022/01/01 07:25:33;;;;;;;0.30;0.20;;;10.40;99.90;;;;;;5068086;28;20470;-86
2022/01/01 07:28:01;;;;;;;0.30;0.20;;;10.50;99.90;;;;;;5071839;28;20512;-87
2022/01/01 07:30:28;;;;;;;0.30;0.20;;;10.60;99.90;;;;;;5071140;28;20527;-86
2022/01/01 07:32:55;;;;;;;0.30;0.13;;;10.60;99.90;;;;;;5073990;28;20795;-86
2022/01/01 07:35:23;;;;;;;0.30;0.20;;;10.60;99.90;;;;;;5070837;28;21030;-86
2022/01/01 07:37:52;;;;;;;0.30;0.20;;;10.60;99.90;;;;;;5067216;28;20603;-84
2022/01/01 07:40:19;;;;;;;0.30;0.20;;;10.60;99.90;;;;;;5069083;28;20436;-86
2022/01/01 07:42:48;;;;;;;0.30;0.10;;;10.60;99.90;;;;;;5071297;28;20562;-87
2022/01/01 07:45:16;;;;;;;0.30;0.10;;;10.60;99.90;;;;;;5074982;28;20517;-86
2022/01/01 07:47:44;;;;;;;0.30;0.20;;;10.60;99.90;;;;;;5081465;28;20443;-86
2022/01/01 07:50:11;;;;;;;0.30;0.20;;;10.60;99.90;;;;;;5083509;28;21050;-86
2022/01/01 07:52:39;;;;;;;0.30;0.20;;;10.60;99.90;;;;;;5060996;28;20491;-85
2022/01/01 07:55:07;;;;;;;0.30;0.20;;;10.60;99.90;;;;;;5072454;28;21224;-86
2022/01/01 07:57:34;;;;;;;0.30;0.10;;;10.60;99.90;;;;;;5074871;28;20812;-86
2022/01/01 08:00:00;;;;;;;0.30;0.20;;;10.60;99.90;;;;;;5081206;28;21118;-86
2022/01/01 08:02:29;;;;;;;1.03;0.40;;;10.60;99.90;;;;;;5091569;28;20455;-89
2022/01/01 08:04:56;;;;;;;0.40;0.20;;;10.60;99.90;;;;;;5108156;28;20818;-84
2022/01/01 08:07:23;;;;;;;0.30;0.10;;;10.60;99.90;;;;;;5095710;28;20930;-85
2022/01/01 08:09:49;;;;;;;0.30;0.20;;;10.60;99.90;;;;;;5094007;28;20440;-86
2022/01/01 08:12:17;;;;;;;0.30;0.20;;;10.60;99.90;;;;;;5080884;28;20915;-86
2022/01/01 08:14:44;;;;;;;0.30;0.10;;;10.60;99.90;;;;;;5071613;28;20517;-86
2022/01/01 08:17:10;;;;;;;0.40;0.30;;;10.60;99.90;;;;;;5071574;28;20448;-87
2022/01/01 08:19:39;;;;;;;0.30;0.10;;;10.60;99.90;;;;;;5076578;28;20456;-86
2022/01/01 08:22:06;;;;;;;0.30;0.20;;;10.70;99.90;;;;;;5064166;28;20523;-86
2022/01/01 08:24:33;;;;;;;0.30;0.20;;;10.70;99.90;;;;;;5070512;28;20537;-85
2022/01/01 08:27:01;;;;;;;0.30;0.20;;;10.80;99.90;;;;;;5071454;28;20500;-86
2022/01/01 08:29:29;;;;;;;0.70;0.70;;;10.80;99.90;;;;;;5070593;28;20467;-86
2022/01/01 08:31:57;;;;;;;0.30;0.20;;;10.80;99.90;;;;;;5063053;28;20451;-88
2022/01/01 08:34:24;;;;;;;0.30;0.20;;;10.80;99.90;;;;;;5077108;28;20532;-85
2022/01/01 08:36:53;;;;;;;0.30;0.20;;;10.80;99.90;;;;;;5089093;28;20454;-87
2022/01/01 08:39:20;;;;;;;4.63;0.50;;;10.90;99.90;;;;;;5073123;28;20549;-87
2022/01/01 08:41:48;;;;;;;0.60;0.53;;;11.00;99.90;;;;;;5070286;28;20495;-86
2022/01/01 08:44:16;;;;;;;0.30;0.20;;;11.00;99.90;;;;;;5070928;28;20446;-87
2022/01/01 08:46:43;;;;;;;0.30;0.20;;;11.10;99.90;;;;;;5069906;28;20460;-88
2022/01/01 08:49:10;;;;;;;0.40;0.30;;;11.10;99.90;;;;;;5069342;28;20543;-87
2022/01/01 08:51:38;;;;;;;0.40;0.30;;;11.10;99.90;;;;;;5052628;28;20480;-87
2022/01/01 08:54:06;;;;;;;0.47;0.47;;;11.10;99.90;;;;;;5062356;28;20536;-86
2022/01/01 08:56:33;;;;;;;0.30;0.20;;;11.10;99.90;;;;;;5070781;28;20501;-87
2022/01/01 08:59:00;;;;;;;0.30;0.20;;;11.20;99.90;;;;;;5070715;28;20471;-86
2022/01/01 09:01:28;;;;;;;0.30;0.10;;;11.20;99.90;;;;;;5070282;28;20501;-86
2022/01/01 09:03:55;;;;;;;0.30;0.20;;;11.30;99.90;;;;;;5078882;28;20517;-85
2022/01/01 09:06:22;;;;;;;0.30;0.20;;;11.30;99.90;;;;;;5069619;28;20992;-85
2022/01/01 09:08:49;;;;;;;0.53;0.53;;;11.30;99.90;;;;;;5068825;28;20495;-85
2022/01/01 09:11:17;;;;;;;0.30;0.10;;;11.40;99.90;;;;;;5070876;28;20512;-86
2022/01/01 09:13:45;;;;;;;1.33;1.23;;;11.40;99.90;;;;;;5069861;28;20464;-85
2022/01/01 09:16:14;;;;;;;0.40;0.20;;;11.30;99.90;;;;;;5070540;28;20574;-86
2022/01/01 09:18:41;;;;;;;0.30;0.20;;;11.40;99.90;;;;;;5070434;28;20466;-86
2022/01/01 09:21:08;;;;;;;5.40;0.80;;;11.40;99.90;;;;;;5071266;28;20455;-85
2022/01/01 09:23:35;;;;;;;0.40;0.30;;;11.50;99.90;;;;;;5078569;28;20521;-86
2022/01/01 09:26:03;;;;;;;0.30;0.20;;;11.50;99.90;;;;;;5088972;28;20503;-85
2022/01/01 09:28:33;;;;;;;0.30;0.20;;;11.50;99.90;;;;;;5081337;28;20496;-86
2022/01/01 09:31:01;;;;;;;0.30;0.20;;;11.60;99.90;;;;;;5089078;28;20503;-85
2022/01/01 09:33:29;;;;;;;0.30;0.20;;;11.60;99.90;;;;;;5077075;28;20541;-87
2022/01/01 09:35:57;;;;;;;0.30;0.20;;;11.60;99.90;;;;;;5084608;28;20965;-86
2022/01/01 09:38:24;;;;;;;0.30;0.20;;;11.60;99.90;;;;;;5088428;28;21048;-86
2022/01/01 09:40:54;;;;;;;0.80;0.80;;;11.60;99.90;;;;;;5080523;28;21204;-86
2022/01/01 09:43:22;;;;;;;0.50;0.47;;;11.60;99.90;;;;;;5094508;28;20444;-87
2022/01/01 09:45:51;;;;;;;0.30;0.20;;;11.60;99.90;;;;;;5107619;28;20451;-86
2022/01/01 09:48:21;;;;;;;0.30;0.20;;;11.60;99.90;;;;;;5090305;28;20439;-85
2022/01/01 09:50:49;;;;;;;0.30;0.20;;;11.70;99.90;;;;;;5078971;28;21208;-86
2022/01/01 09:53:17;;;;;;;0.30;0.20;;;11.80;99.90;;;;;;5069915;28;20452;-86
2022/01/01 09:55:44;;;;;;;0.30;0.20;;;11.70;99.90;;;;;;5062043;28;20566;-87
2022/01/01 09:58:11;;;;;;;0.30;0.20;;;11.90;99.90;;;;;;5083903;28;20515;-87
2022/01/01 10:00:38;;;;;;;0.30;0.17;;;11.80;99.90;;;;;;5073481;28;20537;-88
2022/01/01 10:03:13;;;;;;;0.30;0.10;;;11.90;99.90;;;;;;5071687;28;20459;-85
2022/01/01 10:05:58;;;;;;;0.40;0.20;;;11.80;99.90;;;;;;5079216;28;20889;-84
2022/01/01 10:08:25;;;;;;;0.30;0.20;;;11.80;99.90;;;;;;5089076;28;20434;-85
2022/01/01 10:10:53;;;;;;;0.30;0.10;;;11.90;99.90;;;;;;5068229;28;20844;-87
2022/01/01 10:13:25;;;;;;;0.30;0.20;;;11.90;99.90;;;;;;5068904;28;20927;-88
2022/01/01 10:15:55;;;;;;;0.80;0.30;;;11.90;99.90;;;;;;5074917;28;20482;-88
2022/01/01 10:18:28;;;;;;;0.30;0.20;;;12.00;99.90;;;;;;5088812;28;20478;-87
2022/01/01 10:21:03;;;;;;;0.50;0.30;;;12.00;99.90;;;;;;5063528;28;20529;-88
2022/01/01 10:23:31;;;;;;;0.30;0.20;;;12.10;99.90;;;;;;5084886;28;20524;-87
2022/01/01 10:29:09;;;;;;;0.30;0.20;;;12.10;99.90;;;;;;5069352;28;20439;-90
2022/01/01 10:31:37;;;;;;;0.30;0.20;;;12.20;99.90;;;;;;5061299;28;20448;-89
2022/01/01 10:34:14;;;;;;;0.37;0.27;;;12.30;99.90;;;;;;5067678;28;20521;-90
2022/01/01 10:36:41;;;;;;;0.30;0.20;;;12.30;99.90;;;;;;5068606;28;20479;-90
2022/01/01 10:39:13;;;;;;;0.30;0.20;;;12.40;99.90;;;;;;5068122;28;20488;-88
2022/01/01 10:41:47;;;;;;;0.30;0.20;;;12.60;99.90;;;;;;5068890;28;20986;-91
2022/01/01 10:44:14;;;;;;;0.30;0.20;;;12.70;99.90;;;;;;5066560;28;20518;-89
2022/01/01 10:46:42;;;;;;;0.30;0.20;;;12.60;99.90;;;;;;5073308;28;20480;-89
2022/01/01 10:52:18;;;;;;;0.30;0.20;;;12.70;99.90;;;;;;5063964;28;20465;-86
2022/01/01 10:54:54;;;;;;;0.30;0.20;;;12.70;99.90;;;;;;5065531;28;20454;-85
2022/01/01 10:57:33;;;;;;;0.40;0.20;;;12.80;99.90;;;;;;5070101;28;20843;-86
2022/01/01 11:00:22;;;;;;;0.30;0.20;;;12.80;99.90;;;;;;5069536;28;20471;-86
2022/01/01 11:02:51;;;;;;;0.30;0.20;;;12.60;99.90;;;;;;5068563;28;20463;-85
2022/01/01 11:05:27;;;;;;;0.40;0.30;;;12.60;99.90;;;;;;5069676;28;20475;-88
2022/01/01 11:07:55;;;;;;;0.30;0.20;;;12.50;99.90;;;;;;5073546;28;20451;-86
2022/01/01 11:10:23;;;;;;;0.30;0.20;;;12.50;99.90;;;;;;5068978;28;20448;-88
2022/01/01 11:12:50;;;;;;;0.30;0.20;;;12.40;99.90;;;;;;5069554;28;20499;-87
2022/01/01 11:15:18;;;;;;;0.30;0.20;;;12.30;99.90;;;;;;5069802;28;20569;-86
2022/01/01 11:17:46;;;;;;;0.30;0.20;;;12.30;99.90;;;;;;5066190;28;20437;-86
2022/01/01 11:20:14;;;;;;;0.30;0.20;;;12.30;99.90;;;;;;5069355;28;20518;-86
2022/01/01 11:22:43;;;;;;;3.30;1.30;;;12.40;99.90;;;;;;5089543;28;20469;-85
2022/01/01 11:25:10;;;;;;;0.30;0.20;;;12.30;99.90;;;;;;5094481;28;20452;-84
2022/01/01 11:27:37;;;;;;;0.30;0.20;;;12.30;99.90;;;;;;5088938;28;20518;-85
2022/01/01 11:30:06;;;;;;;0.30;0.20;;;12.40;99.90;;;;;;5073143;28;20526;-86
2022/01/01 11:32:41;;;;;;;0.30;0.10;;;12.30;99.90;;;;;;5073943;28;20460;-86
2022/01/01 11:35:11;;;;;;;0.40;0.30;;;12.40;99.90;;;;;;5074150;28;20471;-85
2022/01/01 11:38:04;;;;;;;0.30;0.20;;;12.40;99.90;;;;;;5071618;28;20449;-86
2022/01/01 11:40:41;;;;;;;0.50;0.50;;;12.40;99.90;;;;;;5052457;28;20451;-86
2022/01/01 11:43:09;;;;;;;0.30;0.20;;;12.30;99.90;;;;;;5065578;28;20452;-85
2022/01/01 11:45:47;;;;;;;0.40;0.30;;;12.40;99.90;;;;;;5069278;28;20518;-85
2022/01/01 11:48:45;;;;;;;0.30;0.20;;;12.40;99.90;;;;;;5069599;28;20505;-86
2022/01/01 11:51:35;;;;;;;0.30;0.20;;;12.50;99.90;;;;;;5066359;28;20458;-85
2022/01/01 11:54:10;;;;;;;0.30;0.20;;;12.30;99.90;;;;;;5072442;28;20506;-87
2022/01/01 11:56:58;;;;;;;0.30;0.20;;;12.40;99.90;;;;;;5064181;28;20539;-88
2022/01/01 11:59:27;;;;;;;0.30;0.20;;;12.40;99.90;;;;;;5069125;28;20827;-86
2022/01/01 12:01:55;;;;;;;0.30;0.20;;;12.50;99.90;;;;;;5071711;28;20538;-87
2022/01/01 12:04:28;;;;;;;0.30;0.20;;;12.50;99.90;;;;;;5080030;28;20523;-87
2022/01/01 12:07:00;;;;;;;0.30;0.20;;;12.50;99.90;;;;;;5072696;28;20453;-84
2022/01/01 12:09:29;;;;;;;0.43;0.20;;;12.60;99.90;;;;;;5086727;28;20549;-85
2022/01/01 12:11:58;;;;;;;0.30;0.20;;;12.50;99.90;;;;;;5091004;28;20470;-86
2022/01/01 12:14:28;;;;;;;1.23;1.23;;;12.60;99.90;;;;;;5077874;28;20527;-86
2022/01/01 12:16:56;;;;;;;0.30;0.20;;;12.50;99.90;;;;;;5072178;28;20515;-87
2022/01/01 12:19:24;;;;;;;0.30;0.20;;;12.60;99.90;;;;;;5081590;28;20497;-85
2022/01/01 12:22:05;;;;;;;0.67;0.60;;;12.60;99.90;;;;;;5090856;28;20910;-86
2022/01/01 12:24:38;;;;;;;0.30;0.20;;;12.70;99.90;;;;;;5071031;28;20463;-86
2022/01/01 12:27:12;;;;;;;0.30;0.20;;;12.70;99.90;;;;;;5063697;28;20464;-86
2022/01/01 12:29:39;;;;;;;0.30;0.20;;;12.70;99.90;;;;;;5070825;28;20943;-86
2022/01/01 12:32:08;;;;;;;0.30;0.20;;;12.80;99.90;;;;;;5074233;28;20460;-86
2022/01/01 12:34:36;;;;;;;0.30;0.20;;;12.80;99.90;;;;;;5074594;28;20531;-87
2022/01/01 12:37:07;;;;;;;0.30;0.20;;;12.70;99.90;;;;;;5070588;28;20574;-86
2022/01/01 12:39:59;;;;;;;0.30;0.20;;;12.70;99.90;;;;;;5070257;28;20678;-85
2022/01/01 12:42:31;;;;;;;0.30;0.20;;;12.80;99.90;;;;;;5066275;28;20425;-87
2022/01/01 12:45:04;;;;;;;0.30;0.20;;;12.70;99.90;;;;;;5067580;28;20459;-85
2022/01/01 12:47:31;;;;;;;0.30;0.20;;;12.80;99.90;;;;;;5070287;28;20460;-87
2022/01/01 12:50:00;;;;;;;0.30;0.20;;;12.80;99.90;;;;;;5069338;28;20505;-86
2022/01/01 12:52:29;;;;;;;0.30;0.20;;;12.70;99.90;;;;;;5069397;28;20466;-86
2022/01/01 12:54:59;;;;;;;0.80;0.47;;;12.70;99.90;;;;;;5076749;28;20496;-86
2022/01/01 12:57:27;;;;;;;0.30;0.13;;;12.60;99.90;;;;;;5071136;28;20493;-86
2022/01/01 12:59:55;;;;;;;0.30;0.13;;;12.60;99.90;;;;;;5073614;28;20448;-86
2022/01/01 13:02:23;;;;;;;0.30;0.20;;;12.60;99.90;;;;;;5087703;28;20428;-87